Terminal Aerodrome Forecast
Issued by NWS

Home | Current Version | Previous Version | Text Only | Print | Product List | Glossary On
Versions: 1 2 3 4 5 6 7 8 9 10 11 12 13 14 15 16 17 18 19 20
000
FTUS44 KLZK 271138
TAFADF
TAF
KADF 271138Z 2712/2812 27005KT P6SM SCT250
      TEMPO 2712/2713 4SM BR SCT005
     FM271400 15006KT P6SM SCT250
     FM272100 16008KT P6SM SCT100 BKN250
     FM280000 16005KT P6SM SCT100 BKN250=

USA.gov is the U.S. government's official web portal to all federal, state and local government web resources and services.